sensor_id;sensor_type;location;lat;lon;timestamp;pressure;altitude;pressure_sealevel;temperature;humidity
6096;BME280;25081;42.698;23.298;2023-04-01T00:00:51;94400.61;;;10.57;64.69
6096;BME280;25081;42.698;23.298;2023-04-01T00:03:02;94385.45;;;10.60;64.59
6096;BME280;25081;42.698;23.298;2023-04-01T00:05:12;94390.33;;;10.63;64.56
6096;BME280;25081;42.698;23.298;2023-04-01T00:07:23;94389.52;;;10.63;64.37
6096;BME280;25081;42.698;23.298;2023-04-01T00:09:33;94395.66;;;10.63;64.40
6096;BME280;25081;42.698;23.298;2023-04-01T00:11:44;94391.27;;;10.71;64.12
6096;BME280;25081;42.698;23.298;2023-04-01T00:13:54;94398.36;;;10.66;64.20
6096;BME280;25081;42.698;23.298;2023-04-01T00:16:06;94405.41;;;10.57;64.57
6096;BME280;25081;42.698;23.298;2023-04-01T00:18:17;94401.19;;;10.45;65.04
6096;BME280;25081;42.698;23.298;2023-04-01T00:20:27;94403.52;;;10.27;65.60
6096;BME280;25081;42.698;23.298;2023-04-01T00:22:38;94407.45;;;10.13;66.19
6096;BME280;25081;42.698;23.298;2023-04-01T00:24:48;94399.98;;;9.98;66.80
6096;BME280;25081;42.698;23.298;2023-04-01T00:26:59;94400.27;;;9.99;66.96
6096;BME280;25081;42.698;23.298;2023-04-01T00:29:09;94395.07;;;9.92;67.04
6096;BME280;25081;42.698;23.298;2023-04-01T00:31:20;94389.09;;;9.99;67.05
6096;BME280;25081;42.698;23.298;2023-04-01T00:33:30;94390.83;;;9.94;67.50
6096;BME280;25081;42.698;23.298;2023-04-01T00:35:41;94391.51;;;9.87;67.65
6096;BME280;25081;42.698;23.298;2023-04-01T00:37:51;94386.11;;;9.84;67.01
6096;BME280;25081;42.698;23.298;2023-04-01T00:40:02;94387.69;;;9.83;67.06
6096;BME280;25081;42.698;23.298;2023-04-01T00:42:13;94389.69;;;9.75;67.50
6096;BME280;25081;42.698;23.298;2023-04-01T00:44:24;94386.67;;;9.72;67.78
6096;BME280;25081;42.698;23.298;2023-04-01T00:46:34;94384.48;;;9.69;68.13
6096;BME280;25081;42.698;23.298;2023-04-01T00:48:46;94377.86;;;9.57;68.20
6096;BME280;25081;42.698;23.298;2023-04-01T00:50:56;94375.64;;;9.54;68.63
6096;BME280;25081;42.698;23.298;2023-04-01T00:53:06;94370.11;;;9.56;68.83
6096;BME280;25081;42.698;23.298;2023-04-01T00:57:41;94364.03;;;9.58;69.11
6096;BME280;25081;42.698;23.298;2023-04-01T00:59:52;94356.88;;;9.46;69.13
6096;BME280;25081;42.698;23.298;2023-04-01T01:02:02;94353.55;;;9.54;69.48
6096;BME280;25081;42.698;23.298;2023-04-01T01:04:23;94340.61;;;9.57;69.12
6096;BME280;25081;42.698;23.298;2023-04-01T01:06:39;94340.84;;;9.56;69.45
6096;BME280;25081;42.698;23.298;2023-04-01T01:09:02;94337.22;;;9.62;69.55
6096;BME280;25081;42.698;23.298;2023-04-01T01:11:12;94341.26;;;9.64;69.70
6096;BME280;25081;42.698;23.298;2023-04-01T01:13:25;94328.55;;;9.66;69.69
6096;BME280;25081;42.698;23.298;2023-04-01T01:15:36;94324.93;;;9.72;69.34
6096;BME280;25081;42.698;23.298;2023-04-01T01:17:50;94330.94;;;9.80;69.51
6096;BME280;25081;42.698;23.298;2023-04-01T01:20:11;94326.57;;;9.88;69.62
6096;BME280;25081;42.698;23.298;2023-04-01T01:25:19;94311.45;;;9.91;69.42
6096;BME280;25081;42.698;23.298;2023-04-01T01:27:29;94313.22;;;9.85;69.38
6096;BME280;25081;42.698;23.298;2023-04-01T01:32:47;94301.75;;;9.99;68.92
6096;BME280;25081;42.698;23.298;2023-04-01T01:37:08;94299.19;;;9.75;69.49
6096;BME280;25081;42.698;23.298;2023-04-01T01:39:17;94297.98;;;9.83;69.46
6096;BME280;25081;42.698;23.298;2023-04-01T01:41:28;94287.13;;;9.85;69.54
6096;BME280;25081;42.698;23.298;2023-04-01T01:43:40;94295.04;;;9.82;69.79
6096;BME280;25081;42.698;23.298;2023-04-01T01:45:50;94292.45;;;9.85;69.83
6096;BME280;25081;42.698;23.298;2023-04-01T01:48:00;94300.44;;;9.85;69.60
6096;BME280;25081;42.698;23.298;2023-04-01T01:50:11;94297.77;;;9.85;69.38
6096;BME280;25081;42.698;23.298;2023-04-01T01:52:22;94301.43;;;9.95;69.07
6096;BME280;25081;42.698;23.298;2023-04-01T01:54:32;94300.17;;;10.00;69.53
6096;BME280;25081;42.698;23.298;2023-04-01T01:56:44;94290.97;;;10.06;69.27
6096;BME280;25081;42.698;23.298;2023-04-01T01:58:55;94294.05;;;10.14;69.10
6096;BME280;25081;42.698;23.298;2023-04-01T02:01:06;94292.69;;;10.26;68.68
6096;BME280;25081;42.698;23.298;2023-04-01T02:03:16;94291.11;;;10.27;68.40
6096;BME280;25081;42.698;23.298;2023-04-01T02:05:27;94286.55;;;10.25;68.29
6096;BME280;25081;42.698;23.298;2023-04-01T02:07:37;94280.81;;;10.19;68.15
6096;BME280;25081;42.698;23.298;2023-04-01T02:09:47;94280.04;;;10.21;68.40
6096;BME280;25081;42.698;23.298;2023-04-01T02:11:58;94276.14;;;10.24;68.39
6096;BME280;25081;42.698;23.298;2023-04-01T02:14:09;94267.34;;;10.23;67.94
6096;BME280;25081;42.698;23.298;2023-04-01T02:16:21;94274.28;;;10.24;67.31
6096;BME280;25081;42.698;23.298;2023-04-01T02:18:31;94270.61;;;10.28;68.32
6096;BME280;25081;42.698;23.298;2023-04-01T02:20:41;94269.02;;;10.29;68.36
6096;BME280;25081;42.698;23.298;2023-04-01T02:22:52;94265.63;;;10.20;68.51
6096;BME280;25081;42.698;23.298;2023-04-01T02:25:04;94255.64;;;9.96;69.06
6096;BME280;25081;42.698;23.298;2023-04-01T02:27:14;94257.61;;;10.03;68.77
6096;BME280;25081;42.698;23.298;2023-04-01T02:29:25;94264.97;;;10.13;68.64
6096;BME280;25081;42.698;23.298;2023-04-01T02:31:35;94270.50;;;10.23;68.44
6096;BME280;25081;42.698;23.298;2023-04-01T02:33:46;94273.58;;;10.31;67.97
6096;BME280;25081;42.698;23.298;2023-04-01T02:35:56;94276.34;;;10.37;67.64
6096;BME280;25081;42.698;23.298;2023-04-01T02:38:07;94269.75;;;10.42;67.64
6096;BME280;25081;42.698;23.298;2023-04-01T02:40:17;94266.63;;;10.45;67.38
6096;BME280;25081;42.698;23.298;2023-04-01T02:42:28;94266.39;;;10.32;67.46
6096;BME280;25081;42.698;23.298;2023-04-01T02:44:38;94277.55;;;10.15;67.96
6096;BME280;25081;42.698;23.298;2023-04-01T02:46:49;94278.31;;;10.27;68.01
6096;BME280;25081;42.698;23.298;2023-04-01T02:48:59;94278.45;;;10.35;67.66
6096;BME280;25081;42.698;23.298;2023-04-01T02:51:10;94280.13;;;10.41;67.66
6096;BME280;25081;42.698;23.298;2023-04-01T02:53:21;94279.27;;;10.52;67.30
6096;BME280;25081;42.698;23.298;2023-04-01T02:55:31;94295.58;;;10.55;67.03
6096;BME280;25081;42.698;23.298;2023-04-01T02:57:42;94299.41;;;10.45;67.41
6096;BME280;25081;42.698;23.298;2023-04-01T02:59:52;94286.80;;;10.41;67.00
6096;BME280;25081;42.698;23.298;2023-04-01T03:02:03;94295.66;;;10.44;66.83
6096;BME280;25081;42.698;23.298;2023-04-01T03:04:14;94299.84;;;10.40;67.14
6096;BME280;25081;42.698;23.298;2023-04-01T03:06:24;94289.14;;;10.37;67.15
6096;BME280;25081;42.698;23.298;2023-04-01T03:08:35;94308.67;;;10.26;67.58
6096;BME280;25081;42.698;23.298;2023-04-01T03:10:45;94313.86;;;10.21;67.96
6096;BME280;25081;42.698;23.298;2023-04-01T03:12:56;94305.34;;;10.21;67.92
6096;BME280;25081;42.698;23.298;2023-04-01T03:15:08;94308.95;;;10.27;67.58
6096;BME280;25081;42.698;23.298;2023-04-01T03:17:18;94302.85;;;10.29;67.60
6096;BME280;25081;42.698;23.298;2023-04-01T03:19:29;94316.41;;;10.27;67.30
6096;BME280;25081;42.698;23.298;2023-04-01T03:21:39;94315.57;;;10.13;67.85
6096;BME280;25081;42.698;23.298;2023-04-01T03:23:50;94302.88;;;10.03;67.86
6096;BME280;25081;42.698;23.298;2023-04-01T03:26:00;94313.20;;;9.99;68.23
6096;BME280;25081;42.698;23.298;2023-04-01T03:28:11;94319.72;;;9.92;68.93
6096;BME280;25081;42.698;23.298;2023-04-01T03:30:22;94323.67;;;9.89;69.22
6096;BME280;25081;42.698;23.298;2023-04-01T03:32:33;94321.90;;;9.81;69.33
6096;BME280;25081;42.698;23.298;2023-04-01T03:34:44;94315.02;;;9.96;69.45
6096;BME280;25081;42.698;23.298;2023-04-01T03:36:54;94311.46;;;10.05;70.00
6096;BME280;25081;42.698;23.298;2023-04-01T03:41:29;94295.00;;;9.80;70.08
6096;BME280;25081;42.698;23.298;2023-04-01T03:43:40;94286.62;;;9.73;70.03
6096;BME280;25081;42.698;23.298;2023-04-01T03:45:51;94276.41;;;9.82;70.97
6096;BME280;25081;42.698;23.298;2023-04-01T03:48:01;94273.64;;;9.63;71.73
6096;BME280;25081;42.698;23.298;2023-04-01T03:50:12;94261.38;;;9.62;71.75
6096;BME280;25081;42.698;23.298;2023-04-01T03:52:23;94244.74;;;9.55;72.56
6096;BME280;25081;42.698;23.298;2023-04-01T03:54:34;94241.99;;;9.64;71.71
6096;BME280;25081;42.698;23.298;2023-04-01T03:56:44;94226.94;;;9.69;71.19
6096;BME280;25081;42.698;23.298;2023-04-01T03:58:54;94213.71;;;9.74;71.76
6096;BME280;25081;42.698;23.298;2023-04-01T04:01:13;94210.88;;;9.79;71.73
6096;BME280;25081;42.698;23.298;2023-04-01T04:03:24;94206.73;;;9.85;70.86
6096;BME280;25081;42.698;23.298;2023-04-01T04:05:34;94198.83;;;9.90;70.39
6096;BME280;25081;42.698;23.298;2023-04-01T04:07:45;94203.38;;;9.92;71.06
6096;BME280;25081;42.698;23.298;2023-04-01T04:09:55;94202.47;;;10.01;71.10
6096;BME280;25081;42.698;23.298;2023-04-01T04:12:07;94192.06;;;9.99;70.62
6096;BME280;25081;42.698;23.298;2023-04-01T04:14:17;94192.03;;;9.97;71.07
6096;BME280;25081;42.698;23.298;2023-04-01T04:16:28;94180.96;;;9.88;70.61
6096;BME280;25081;42.698;23.298;2023-04-01T04:18:38;94182.99;;;9.67;71.19
6096;BME280;25081;42.698;23.298;2023-04-01T04:20:49;94171.30;;;9.68;71.26
6096;BME280;25081;42.698;23.298;2023-04-01T04:23:01;94166.85;;;9.73;70.47
6096;BME280;25081;42.698;23.298;2023-04-01T04:25:11;94171.27;;;9.82;70.36
6096;BME280;25081;42.698;23.298;2023-04-01T04:27:21;94177.84;;;9.77;70.26
6096;BME280;25081;42.698;23.298;2023-04-01T04:29:32;94171.38;;;9.73;70.71
6096;BME280;25081;42.698;23.298;2023-04-01T04:31:42;94168.20;;;11.40;82.96
6096;BME280;25081;42.698;23.298;2023-04-01T04:33:53;94166.06;;;10.96;68.01
6096;BME280;25081;42.698;23.298;2023-04-01T04:36:04;94160.30;;;10.63;68.17
6096;BME280;25081;42.698;23.298;2023-04-01T04:38:15;94155.13;;;10.37;68.94
6096;BME280;25081;42.698;23.298;2023-04-01T04:40:25;94163.62;;;10.19;69.82
6096;BME280;25081;42.698;23.298;2023-04-01T04:42:36;94161.05;;;10.08;70.39
6096;BME280;25081;42.698;23.298;2023-04-01T04:44:46;94147.36;;;10.01;70.51
6096;BME280;25081;42.698;23.298;2023-04-01T04:46:57;94158.55;;;9.70;70.87
6096;BME280;25081;42.698;23.298;2023-04-01T04:49:07;94150.25;;;9.83;71.20
6096;BME280;25081;42.698;23.298;2023-04-01T04:51:18;94146.48;;;9.96;71.17
6096;BME280;25081;42.698;23.298;2023-04-01T04:53:28;94142.96;;;10.10;71.06
6096;BME280;25081;42.698;23.298;2023-04-01T04:55:42;94137.66;;;10.26;70.56
6096;BME280;25081;42.698;23.298;2023-04-01T04:57:49;94134.59;;;10.20;69.58
6096;BME280;25081;42.698;23.298;2023-04-01T05:00:00;94127.41;;;10.21;69.76
6096;BME280;25081;42.698;23.298;2023-04-01T05:02:10;94133.11;;;10.24;69.50
6096;BME280;25081;42.698;23.298;2023-04-01T05:04:21;94136.36;;;10.29;69.68
6096;BME280;25081;42.698;23.298;2023-04-01T05:06:32;94133.16;;;10.46;69.36
6096;BME280;25081;42.698;23.298;2023-04-01T05:08:42;94127.57;;;10.48;69.56
6096;BME280;25081;42.698;23.298;2023-04-01T05:10:52;94121.97;;;10.47;69.07
6096;BME280;25081;42.698;23.298;2023-04-01T05:13:03;94110.25;;;10.28;68.98
6096;BME280;25081;42.698;23.298;2023-04-01T05:15:13;94104.38;;;10.12;69.72
6096;BME280;25081;42.698;23.298;2023-04-01T05:17:24;94098.00;;;10.13;68.93
6096;BME280;25081;42.698;23.298;2023-04-01T05:19:35;94106.88;;;10.19;68.57
6096;BME280;25081;42.698;23.298;2023-04-01T05:21:45;94097.31;;;10.20;69.16
6096;BME280;25081;42.698;23.298;2023-04-01T05:23:56;94101.13;;;9.91;69.16
6096;BME280;25081;42.698;23.298;2023-04-01T05:26:07;94086.64;;;10.01;68.77
6096;BME280;25081;42.698;23.298;2023-04-01T05:28:17;94078.17;;;10.40;66.89
6096;BME280;25081;42.698;23.298;2023-04-01T05:30:27;94080.55;;;10.58;66.22
6096;BME280;25081;42.698;23.298;2023-04-01T05:32:38;94076.14;;;11.15;64.77
6096;BME280;25081;42.698;23.298;2023-04-01T05:34:51;94087.36;;;12.03;61.64
6096;BME280;25081;42.698;23.298;2023-04-01T05:37:01;94090.71;;;12.71;59.29
6096;BME280;25081;42.698;23.298;2023-04-01T05:39:12;94094.52;;;13.63;55.73
6096;BME280;25081;42.698;23.298;2023-04-01T05:41:22;94079.22;;;13.51;55.89
6096;BME280;25081;42.698;23.298;2023-04-01T05:43:32;94077.91;;;14.29;54.51
6096;BME280;25081;42.698;23.298;2023-04-01T05:45:43;94079.31;;;16.00;49.57
6096;BME280;25081;42.698;23.298;2023-04-01T05:47:54;94078.30;;;15.50;49.47
6096;BME280;25081;42.698;23.298;2023-04-01T05:50:05;94067.77;;;16.29;47.41
6096;BME280;25081;42.698;23.298;2023-04-01T05:52:15;94063.76;;;16.55;46.18
6096;BME280;25081;42.698;23.298;2023-04-01T05:54:26;94071.35;;;15.88;47.17
6096;BME280;25081;42.698;23.298;2023-04-01T05:56:36;94070.38;;;14.34;49.64
6096;BME280;25081;42.698;23.298;2023-04-01T05:58:49;94072.52;;;13.51;52.23
6096;BME280;25081;42.698;23.298;2023-04-01T06:01:03;94083.27;;;12.83;53.91
6096;BME280;25081;42.698;23.298;2023-04-01T06:03:12;94078.55;;;12.06;55.89
6096;BME280;25081;42.698;23.298;2023-04-01T06:05:24;94070.38;;;12.20;56.27
6096;BME280;25081;42.698;23.298;2023-04-01T06:07:33;94065.88;;;12.75;54.76
6096;BME280;25081;42.698;23.298;2023-04-01T06:09:44;94073.23;;;13.18;53.61
6096;BME280;25081;42.698;23.298;2023-04-01T06:12:06;94068.28;;;13.75;52.12
6096;BME280;25081;42.698;23.298;2023-04-01T06:14:19;94064.23;;;14.26;50.87
6096;BME280;25081;42.698;23.298;2023-04-01T06:16:31;94058.02;;;14.61;49.20
6096;BME280;25081;42.698;23.298;2023-04-01T06:18:48;94065.05;;;14.16;50.51
6096;BME280;25081;42.698;23.298;2023-04-01T06:21:00;94061.80;;;14.47;49.81
6096;BME280;25081;42.698;23.298;2023-04-01T06:23:30;94059.67;;;14.49;48.96
6096;BME280;25081;42.698;23.298;2023-04-01T06:25:45;94063.97;;;14.48;49.28
6096;BME280;25081;42.698;23.298;2023-04-01T06:28:15;94066.91;;;14.39;49.35
6096;BME280;25081;42.698;23.298;2023-04-01T06:30:31;94066.66;;;14.22;49.66
6096;BME280;25081;42.698;23.298;2023-04-01T06:32:50;94061.05;;;14.01;50.43
6096;BME280;25081;42.698;23.298;2023-04-01T06:35:22;94062.09;;;14.08;49.63
6096;BME280;25081;42.698;23.298;2023-04-01T06:37:42;94057.56;;;14.11;49.60
6096;BME280;25081;42.698;23.298;2023-04-01T06:40:08;94056.73;;;14.15;48.99
6096;BME280;25081;42.698;23.298;2023-04-01T06:42:34;94057.83;;;13.86;49.52
6096;BME280;25081;42.698;23.298;2023-04-01T06:44:47;94037.73;;;13.79;50.27
6096;BME280;25081;42.698;23.298;2023-04-01T06:46:59;94046.75;;;13.16;52.13
6096;BME280;25081;42.698;23.298;2023-04-01T06:49:28;94050.47;;;13.10;53.00
6096;BME280;25081;42.698;23.298;2023-04-01T06:51:41;94040.03;;;13.09;52.84
6096;BME280;25081;42.698;23.298;2023-04-01T06:53:51;94036.80;;;12.99;53.38
6096;BME280;25081;42.698;23.298;2023-04-01T06:56:04;94018.30;;;12.90;53.69
6096;BME280;25081;42.698;23.298;2023-04-01T06:58:16;94022.66;;;13.14;53.79
6096;BME280;25081;42.698;23.298;2023-04-01T07:00:29;94001.03;;;13.23;53.67
6096;BME280;25081;42.698;23.298;2023-04-01T07:02:41;94011.38;;;12.97;54.29
6096;BME280;25081;42.698;23.298;2023-04-01T07:04:52;94029.47;;;12.69;55.40
6096;BME280;25081;42.698;23.298;2023-04-01T07:07:03;94030.77;;;12.61;55.95
6096;BME280;25081;42.698;23.298;2023-04-01T07:09:14;94033.28;;;12.86;55.77
6096;BME280;25081;42.698;23.298;2023-04-01T07:11:26;94015.95;;;13.04;55.43
6096;BME280;25081;42.698;23.298;2023-04-01T07:13:39;94018.72;;;13.32;55.02
6096;BME280;25081;42.698;23.298;2023-04-01T07:15:50;94002.66;;;13.44;54.64
6096;BME280;25081;42.698;23.298;2023-04-01T07:18:02;94009.09;;;13.61;54.39
6096;BME280;25081;42.698;23.298;2023-04-01T07:20:13;94001.84;;;13.90;53.95
6096;BME280;25081;42.698;23.298;2023-04-01T07:22:26;94009.85;;;14.05;53.61
6096;BME280;25081;42.698;23.298;2023-04-01T07:24:36;94022.69;;;14.16;53.46
6096;BME280;25081;42.698;23.298;2023-04-01T07:26:46;94005.55;;;14.19;53.30
6096;BME280;25081;42.698;23.298;2023-04-01T07:28:56;93999.16;;;13.92;53.80
6096;BME280;25081;42.698;23.298;2023-04-01T07:31:12;93999.45;;;13.73;54.64
6096;BME280;25081;42.698;23.298;2023-04-01T07:33:22;94017.36;;;13.24;56.20
6096;BME280;25081;42.698;23.298;2023-04-01T07:35:33;94030.22;;;13.60;55.81
6096;BME280;25081;42.698;23.298;2023-04-01T07:37:47;94033.98;;;13.95;54.88
6096;BME280;25081;42.698;23.298;2023-04-01T07:39:59;94018.98;;;14.09;54.21
6096;BME280;25081;42.698;23.298;2023-04-01T07:42:09;94013.59;;;13.99;53.75
6096;BME280;25081;42.698;23.298;2023-04-01T07:44:22;94037.16;;;13.26;56.19
6096;BME280;25081;42.698;23.298;2023-04-01T07:46:52;94018.45;;;13.66;55.41
6096;BME280;25081;42.698;23.298;2023-04-01T07:49:03;94006.66;;;14.00;54.34
6096;BME280;25081;42.698;23.298;2023-04-01T07:51:14;94010.40;;;14.02;54.43
6096;BME280;25081;42.698;23.298;2023-04-01T07:53:25;94013.34;;;14.11;54.37
6096;BME280;25081;42.698;23.298;2023-04-01T07:55:36;93992.66;;;14.29;53.30
6096;BME280;25081;42.698;23.298;2023-04-01T07:57:48;93988.64;;;14.24;52.94
6096;BME280;25081;42.698;23.298;2023-04-01T08:00:00;93986.81;;;14.04;53.49
6096;BME280;25081;42.698;23.298;2023-04-01T08:02:14;93986.81;;;14.09;53.83
6096;BME280;25081;42.698;23.298;2023-04-01T08:04:30;93998.88;;;14.09;53.75
6096;BME280;25081;42.698;23.298;2023-04-01T08:06:39;93988.72;;;13.83;54.68
6096;BME280;25081;42.698;23.298;2023-04-01T08:08:56;93987.11;;;13.90;54.25
6096;BME280;25081;42.698;23.298;2023-04-01T08:11:08;93991.62;;;14.07;54.03
6096;BME280;25081;42.698;23.298;2023-04-01T08:13:20;93993.20;;;14.23;53.70
6096;BME280;25081;42.698;23.298;2023-04-01T08:17:51;93979.58;;;14.84;52.82
6096;BME280;25081;42.698;23.298;2023-04-01T08:20:10;93968.47;;;15.06;51.80
6096;BME280;25081;42.698;23.298;2023-04-01T08:22:21;93959.97;;;15.31;51.58
6096;BME280;25081;42.698;23.298;2023-04-01T08:24:35;93945.46;;;15.32;51.23
6096;BME280;25081;42.698;23.298;2023-04-01T08:26:44;93958.42;;;15.22;51.72
6096;BME280;25081;42.698;23.298;2023-04-01T08:28:56;93963.51;;;15.24;51.86
6096;BME280;25081;42.698;23.298;2023-04-01T08:31:05;93953.45;;;15.44;51.55
6096;BME280;25081;42.698;23.298;2023-04-01T08:33:17;93930.75;;;15.90;50.16
6096;BME280;25081;42.698;23.298;2023-04-01T08:35:29;93923.74;;;15.91;49.96
6096;BME280;25081;42.698;23.298;2023-04-01T08:37:39;93923.74;;;15.91;49.96
6096;BME280;25081;42.698;23.298;2023-04-01T08:39:50;93915.16;;;16.16;49.39
6096;BME280;25081;42.698;23.298;2023-04-01T08:47:31;93874.11;;;21.04;38.52
6096;BME280;25081;42.698;23.298;2023-04-01T08:49:52;93868.86;;;23.33;34.25
6096;BME280;25081;42.698;23.298;2023-04-01T08:52:23;93857.20;;;24.75;32.24
6096;BME280;25081;42.698;23.298;2023-04-01T08:54:54;93846.93;;;25.21;30.47
6096;BME280;25081;42.698;23.298;2023-04-01T08:57:06;93856.41;;;24.62;29.65
6096;BME280;25081;42.698;23.298;2023-04-01T08:59:28;93854.13;;;24.34;30.65
6096;BME280;25081;42.698;23.298;2023-04-01T09:01:49;93863.65;;;24.95;29.20
6096;BME280;25081;42.698;23.298;2023-04-01T09:04:08;93877.39;;;25.91;27.83
6096;BME280;25081;42.698;23.298;2023-04-01T09:06:28;93884.08;;;23.40;30.74
6096;BME280;25081;42.698;23.298;2023-04-01T09:08:44;93872.91;;;21.51;33.89
6096;BME280;25081;42.698;23.298;2023-04-01T09:11:05;93871.47;;;22.26;32.44
6096;BME280;25081;42.698;23.298;2023-04-01T09:13:31;93867.20;;;22.40;32.24
6096;BME280;25081;42.698;23.298;2023-04-01T09:16:10;93868.11;;;21.74;32.23
6096;BME280;25081;42.698;23.298;2023-04-01T09:18:47;93875.72;;;21.31;33.19
6096;BME280;25081;42.698;23.298;2023-04-01T09:21:18;93864.96;;;20.74;33.79
6096;BME280;25081;42.698;23.298;2023-04-01T09:23:38;93865.51;;;20.56;34.50
6096;BME280;25081;42.698;23.298;2023-04-01T09:25:51;93865.98;;;20.39;35.34
6096;BME280;25081;42.698;23.298;2023-04-01T09:28:06;93859.59;;;19.95;35.92
6096;BME280;25081;42.698;23.298;2023-04-01T09:30:37;93854.16;;;19.75;36.03
6096;BME280;25081;42.698;23.298;2023-04-01T09:33:09;93839.65;;;19.82;36.35
6096;BME280;25081;42.698;23.298;2023-04-01T09:35:25;93842.37;;;19.71;35.67
6096;BME280;25081;42.698;23.298;2023-04-01T09:37:39;93836.70;;;19.81;36.03
6096;BME280;25081;42.698;23.298;2023-04-01T09:39:52;93848.34;;;19.70;36.19
6096;BME280;25081;42.698;23.298;2023-04-01T09:42:15;93833.18;;;19.61;36.64
6096;BME280;25081;42.698;23.298;2023-04-01T09:44:27;93832.48;;;19.44;37.03
6096;BME280;25081;42.698;23.298;2023-04-01T09:47:00;93825.30;;;19.51;36.34
6096;BME280;25081;42.698;23.298;2023-04-01T09:49:40;93816.45;;;19.36;36.10
6096;BME280;25081;42.698;23.298;2023-04-01T09:51:55;93806.14;;;20.20;35.61
6096;BME280;25081;42.698;23.298;2023-04-01T09:54:11;93705.55;;;19.90;34.28
6096;BME280;25081;42.698;23.298;2023-04-01T10:03:05;93781.88;;;20.07;35.17
6096;BME280;25081;42.698;23.298;2023-04-01T10:08:07;93793.94;;;18.85;37.60
6096;BME280;25081;42.698;23.298;2023-04-01T10:10:39;93788.87;;;18.81;36.86
6096;BME280;25081;42.698;23.298;2023-04-01T10:15:42;93766.70;;;18.09;38.31
6096;BME280;25081;42.698;23.298;2023-04-01T10:26:25;93761.55;;;17.25;40.66
6096;BME280;25081;42.698;23.298;2023-04-01T10:29:09;93756.79;;;17.80;39.27
6096;BME280;25081;42.698;23.298;2023-04-01T10:31:53;93750.00;;;17.96;39.38
6096;BME280;25081;42.698;23.298;2023-04-01T10:34:29;93747.25;;;17.71;38.94
6096;BME280;25081;42.698;23.298;2023-04-01T10:36:55;93747.25;;;17.71;38.94
6096;BME280;25081;42.698;23.298;2023-04-01T10:39:49;93736.42;;;17.30;40.87
6096;BME280;25081;42.698;23.298;2023-04-01T10:42:13;93736.42;;;17.30;40.87
6096;BME280;25081;42.698;23.298;2023-04-01T10:44:46;93745.00;;;17.02;42.31
6096;BME280;25081;42.698;23.298;2023-04-01T10:47:33;93741.58;;;16.45;43.87
6096;BME280;25081;42.698;23.298;2023-04-01T10:49:50;93727.67;;;16.56;43.39
6096;BME280;25081;42.698;23.298;2023-04-01T10:54:48;93727.22;;;16.52;43.89
6096;BME280;25081;42.698;23.298;2023-04-01T10:56:59;93727.22;;;16.52;43.89
6096;BME280;25081;42.698;23.298;2023-04-01T11:07:57;93704.50;;;16.58;44.00
6096;BME280;25081;42.698;23.298;2023-04-01T11:10:25;93711.90;;;16.85;43.23
6096;BME280;25081;42.698;23.298;2023-04-01T11:13:13;93711.90;;;16.85;43.23
6096;BME280;25081;42.698;23.298;2023-04-01T11:16:01;93706.37;;;17.09;43.20
6096;BME280;25081;42.698;23.298;2023-04-01T11:18:50;93715.50;;;17.10;43.03
6096;BME280;25081;42.698;23.298;2023-04-01T11:24:10;93721.44;;;17.10;42.49
6096;BME280;25081;42.698;23.298;2023-04-01T11:26:29;93721.44;;;17.10;42.49
6096;BME280;25081;42.698;23.298;2023-04-01T11:31:27;93775.95;;;16.48;45.87
6096;BME280;25081;42.698;23.298;2023-04-01T11:33:38;93804.94;;;16.35;48.35
6096;BME280;25081;42.698;23.298;2023-04-01T11:36:01;93804.94;;;16.35;48.35
6096;BME280;25081;42.698;23.298;2023-04-01T11:38:38;93814.88;;;15.94;48.62
6096;BME280;25081;42.698;23.298;2023-04-01T11:40:48;93805.72;;;15.44;53.87
6096;BME280;25081;42.698;23.298;2023-04-01T11:42:59;93835.60;;;15.04;56.80
6096;BME280;25081;42.698;23.298;2023-04-01T11:45:17;93890.84;;;14.73;57.16
6096;BME280;25081;42.698;23.298;2023-04-01T11:47:40;93900.63;;;14.46;60.60
6096;BME280;25081;42.698;23.298;2023-04-01T11:49:57;93918.58;;;13.53;68.55
6096;BME280;25081;42.698;23.298;2023-04-01T11:52:21;93944.20;;;12.75;71.34
6096;BME280;25081;42.698;23.298;2023-04-01T11:54:39;93955.49;;;12.20;75.67
6096;BME280;25081;42.698;23.298;2023-04-01T11:56:57;93980.66;;;11.84;77.84
6096;BME280;25081;42.698;23.298;2023-04-01T12:01:54;93987.95;;;11.59;79.91
6096;BME280;25081;42.698;23.298;2023-04-01T12:04:41;93990.98;;;11.73;81.47
6096;BME280;25081;42.698;23.298;2023-04-01T12:06:52;94001.64;;;11.68;81.71
6096;BME280;25081;42.698;23.298;2023-04-01T12:09:07;94000.07;;;11.77;81.82
6096;BME280;25081;42.698;23.298;2023-04-01T12:11:17;93994.33;;;11.88;82.67
6096;BME280;25081;42.698;23.298;2023-04-01T12:13:31;93982.86;;;11.92;83.30
6096;BME280;25081;42.698;23.298;2023-04-01T12:15:56;93981.89;;;12.09;83.49
6096;BME280;25081;42.698;23.298;2023-04-01T12:18:11;93963.25;;;12.24;83.27
6096;BME280;25081;42.698;23.298;2023-04-01T12:20:33;93956.14;;;12.50;81.70
6096;BME280;25081;42.698;23.298;2023-04-01T12:22:48;93959.77;;;13.06;81.47
6096;BME280;25081;42.698;23.298;2023-04-01T12:25:01;93960.89;;;13.61;79.85
6096;BME280;25081;42.698;23.298;2023-04-01T12:27:34;93965.66;;;13.87;77.79
6096;BME280;25081;42.698;23.298;2023-04-01T12:29:54;93970.48;;;13.88;76.77
6096;BME280;25081;42.698;23.298;2023-04-01T12:32:05;93971.25;;;14.06;77.58
6096;BME280;25081;42.698;23.298;2023-04-01T12:34:41;93983.86;;;13.98;76.93
6096;BME280;25081;42.698;23.298;2023-04-01T12:36:56;93996.23;;;13.43;77.33
6096;BME280;25081;42.698;23.298;2023-04-01T12:39:29;93990.77;;;13.02;78.89
6096;BME280;25081;42.698;23.298;2023-04-01T12:41:41;93997.95;;;12.79;79.78
6096;BME280;25081;42.698;23.298;2023-04-01T12:44:10;93988.75;;;12.49;81.06
6096;BME280;25081;42.698;23.298;2023-04-01T12:46:22;93971.58;;;12.35;81.30
6096;BME280;25081;42.698;23.298;2023-04-01T12:48:55;93968.90;;;12.32;81.95
6096;BME280;25081;42.698;23.298;2023-04-01T12:51:23;93963.51;;;12.20;82.48
6096;BME280;25081;42.698;23.298;2023-04-01T12:53:45;93963.78;;;12.23;82.58
6096;BME280;25081;42.698;23.298;2023-04-01T12:55:55;93961.59;;;12.15;82.93
6096;BME280;25081;42.698;23.298;2023-04-01T13:00:48;93949.95;;;11.84;84.14